Time;durP1;ratioP1;P1;durP2;ratioP2;P2;SDS_P1;SDS_P2;PMS_P1;PMS_P2;Temp;Humidity;BMP_temperature;BMP_pressure;BME280_temperature;BME280_humidity;BME280_pressure;Samples;Min_cycle;Max_cycle;Signal;HPM_P1;HPM_P2
2021/12/15 00:00:05;;;;;;;86.40;43.50;;;;;;;2.68;89.22;101440.02;87868;1286;79324;-66
2021/12/15 00:02:34;;;;;;;89.40;45.00;;;;;;;2.67;89.09;101438.50;87842;1288;79672;-67
2021/12/15 00:04:44;;;;;;;87.60;44.00;;;;;;;2.64;89.24;101440.63;87891;1282;100078;-66
2021/12/15 00:06:53;;;;;;;84.80;43.60;;;;;;;2.66;89.13;101439.27;87923;1280;89125;-65
2021/12/15 00:09:09;;;;;;;84.30;43.50;;;;;;;2.67;89.26;101440.59;87868;1286;95131;-64
2021/12/15 00:11:20;;;;;;;86.40;42.70;;;;;;;2.70;89.36;101435.23;87749;1289;81527;-67
2021/12/15 00:13:29;;;;;;;83.90;43.10;;;;;;;2.78;89.27;101438.92;87901;1283;83242;-66
2021/12/15 00:15:41;;;;;;;83.20;42.90;;;;;;;2.83;89.34;101441.52;87888;1287;99928;-66
2021/12/15 00:17:51;;;;;;;92.10;45.50;;;;;;;2.88;89.34;101440.98;87889;1282;89085;-65
2021/12/15 00:20:00;;;;;;;88.40;44.20;;;;;;;2.89;89.36;101437.17;87879;1286;95544;-65
2021/12/15 00:22:10;;;;;;;91.80;46.10;;;;;;;2.87;89.30;101438.20;87857;1286;78020;-66
2021/12/15 00:24:19;;;;;;;91.90;44.80;;;;;;;2.86;89.21;101432.45;87876;1287;81664;-67
2021/12/15 00:26:32;;;;;;;90.00;43.40;;;;;;;2.83;89.19;101432.65;87890;1282;99785;-66
2021/12/15 00:28:42;;;;;;;88.40;43.10;;;;;;;2.79;89.11;101428.84;87884;1287;86513;-65
2021/12/15 00:30:52;;;;;;;82.40;42.00;;;;;;;2.76;89.11;101436.92;87893;1290;93815;-67
2021/12/15 00:33:02;;;;;;;79.20;41.10;;;;;;;2.76;89.21;101434.60;87912;1282;78952;-65
2021/12/15 00:35:16;;;;;;;78.00;39.20;;;;;;;2.78;89.32;101441.57;87867;1286;82958;-65
2021/12/15 00:37:27;;;;;;;;;;;;;;;2.77;89.31;101440.89;87873;1286;99616;-66
2021/12/15 00:39:40;;;;;;;88.50;41.30;;;;;;;2.82;89.36;101439.28;87918;1286;88896;-66
2021/12/15 00:41:52;;;;;;;85.00;42.20;;;;;;;2.86;89.30;101441.51;87881;1286;94786;-66
2021/12/15 00:44:02;;;;;;;84.50;43.30;;;;;;;2.88;89.40;101445.98;87890;1282;78523;-66
2021/12/15 00:46:12;;;;;;;85.10;43.40;;;;;;;2.92;89.39;101455.09;87905;1286;83249;-66
2021/12/15 00:48:21;;;;;;;83.70;44.60;;;;;;;2.91;89.32;101464.60;87891;1283;97234;-66
2021/12/15 00:50:36;;;;;;;81.40;43.10;;;;;;;2.84;89.31;101470.09;87883;1283;87747;-66
2021/12/15 00:52:47;;;;;;;85.40;42.80;;;;;;;2.79;89.33;101471.94;87880;1282;95233;-66
2021/12/15 00:54:57;;;;;;;78.00;39.70;;;;;;;2.73;89.15;101468.94;87898;1283;78507;-65
2021/12/15 00:57:07;;;;;;;76.50;39.40;;;;;;;2.75;89.30;101475.43;87911;1283;81488;-66
2021/12/15 00:59:16;;;;;;;77.60;39.30;;;;;;;2.75;89.36;101474.67;87904;1286;99780;-68
2021/12/15 01:01:27;;;;;;;75.10;40.70;;;;;;;2.80;89.31;101480.16;87871;1282;87648;-65
2021/12/15 01:03:40;;;;;;;75.20;38.70;;;;;;;2.81;89.31;101483.15;87885;1283;92855;-65
2021/12/15 01:06:02;;;;;;;77.10;41.30;;;;;;;2.85;89.38;101484.27;87908;1283;80393;-65
2021/12/15 01:08:16;;;;;;;78.60;41.00;;;;;;;2.86;89.35;101485.56;87886;1286;82990;-64
2021/12/15 01:10:40;;;;;;;77.70;41.90;;;;;;;2.90;89.42;101486.02;87695;1283;98947;-66
2021/12/15 01:14:28;;;;;;;;;;;;;;;2.87;89.30;101489.30;87753;1288;88088;-65
2021/12/15 01:20:34;;;;;;;75.70;38.30;;;;;;;2.83;89.32;101485.09;87870;1287;83159;-66
2021/12/15 01:22:52;;;;;;;73.00;38.10;;;;;;;2.80;89.22;101476.11;87886;1286;99893;-65
2021/12/15 01:25:06;;;;;;;68.80;37.10;;;;;;;2.83;89.27;101478.39;87907;1286;89643;-66
2021/12/15 01:27:16;;;;;;;67.50;38.40;;;;;;;2.83;89.27;101481.57;87884;1286;95475;-66
2021/12/15 01:29:26;;;;;;;73.20;37.40;;;;;;;2.82;89.30;101488.06;87903;1286;78375;-67
2021/12/15 01:31:37;;;;;;;66.30;35.90;;;;;;;2.81;89.32;101489.73;87916;1286;81431;-66
2021/12/15 01:33:47;;;;;;;71.70;37.90;;;;;;;2.81;89.37;101477.61;87885;1286;98441;-66
2021/12/15 01:36:01;;;;;;;76.70;38.60;;;;;;;2.90;89.50;101475.88;87919;1282;88653;-65
2021/12/15 01:38:16;;;;;;;69.60;39.50;;;;;;;2.96;89.47;101474.70;87880;1283;95485;-67
2021/12/15 01:40:34;;;;;;;75.00;39.70;;;;;;;2.94;89.37;101478.73;87900;1287;76368;-67
2021/12/15 01:42:44;;;;;;;77.50;40.20;;;;;;;2.91;89.28;101475.96;87927;1283;81962;-66
2021/12/15 01:47:22;;;;;;;71.20;36.90;;;;;;;2.84;89.11;101485.90;87880;1286;88758;-64
2021/12/15 01:49:42;;;;;;;66.10;35.50;;;;;;;2.86;89.16;101487.40;87886;1283;94535;-68
2021/12/15 01:51:52;;;;;;;66.80;36.10;;;;;;;2.85;89.11;101484.08;87856;1286;77963;-65
2021/12/15 01:54:05;;;;;;;62.80;34.50;;;;;;;2.85;89.20;101489.05;87888;1286;81779;-64
2021/12/15 01:56:19;;;;;;;66.30;34.50;;;;;;;2.87;89.19;101490.88;87889;1286;99499;-66
2021/12/15 01:58:30;;;;;;;64.90;35.00;;;;;;;2.85;89.14;101494.92;87882;1283;86947;-66
2021/12/15 02:00:46;;;;;;;64.40;36.90;;;;;;;2.86;89.20;101498.42;87884;1286;94508;-67
2021/12/15 02:02:57;;;;;;;65.50;35.10;;;;;;;2.85;89.18;101498.30;87917;1281;77169;-66
2021/12/15 02:05:07;;;;;;;69.60;37.50;;;;;;;2.82;89.15;101491.44;87894;1282;81656;-65
2021/12/15 02:07:18;;;;;;;74.50;38.40;;;;;;;2.82;89.28;101492.52;87906;1286;99571;-65
2021/12/15 02:09:48;;;;;;;61.50;33.80;;;;;;;2.78;89.14;101493.33;87893;1283;88581;-67
2021/12/15 02:11:59;;;;;;;68.80;33.90;;;;;;;2.73;89.10;101492.14;87893;1280;95457;-66
2021/12/15 02:14:10;;;;;;;62.20;32.70;;;;;;;2.69;89.06;101495.24;87880;1282;81612;-65
2021/12/15 02:16:20;;;;;;;59.10;31.40;;;;;;;2.67;89.21;101494.48;87921;1286;81761;-68
2021/12/15 02:18:36;;;;;;;61.80;33.50;;;;;;;2.66;89.13;101487.63;87915;1283;100061;-66
2021/12/15 02:20:52;;;;;;;54.80;31.70;;;;;;;2.65;89.15;101486.13;87893;1283;89325;-66
2021/12/15 02:23:02;;;;;;;59.30;34.20;;;;;;;2.67;89.12;101486.98;87909;1281;94442;-66
2021/12/15 02:25:16;;;;;;;66.60;34.60;;;;;;;2.70;89.08;101486.10;87899;1286;78435;-67
2021/12/15 02:27:31;;;;;;;64.60;34.60;;;;;;;2.69;89.07;101489.69;87957;1284;80335;-66
2021/12/15 02:29:44;;;;;;;65.80;35.30;;;;;;;2.69;89.08;101494.70;87906;1285;100252;-66
2021/12/15 02:32:07;;;;;;;66.70;34.40;;;;;;;2.67;89.13;101497.55;87885;1283;86946;-66
2021/12/15 02:34:32;;;;;;;62.50;32.80;;;;;;;2.68;89.16;101495.83;87862;1284;94147;-65
2021/12/15 02:39:11;;;;;;;53.00;29.80;;;;;;;2.69;89.18;101497.01;87861;1282;81759;-65
2021/12/15 02:41:23;;;;;;;60.30;32.00;;;;;;;2.71;89.13;101498.31;87910;1284;100347;-65
2021/12/15 02:43:33;;;;;;;63.00;32.00;;;;;;;2.75;89.15;101494.42;87892;1283;88614;-66
2021/12/15 02:45:42;;;;;;;62.00;32.70;;;;;;;2.77;89.08;101499.83;87887;1283;94274;-64
2021/12/15 02:47:55;;;;;;;58.00;32.40;;;;;;;2.75;89.11;101497.13;87728;1285;80615;-65
2021/12/15 02:50:10;;;;;;;50.90;29.50;;;;;;;2.78;89.05;101496.20;87779;1287;83098;-66
2021/12/15 02:52:20;;;;;;;58.10;33.20;;;;;;;2.77;89.09;101496.95;87892;1282;97565;-65
2021/12/15 02:54:30;;;;;;;61.90;32.40;;;;;;;2.83;89.27;101495.78;87916;1282;86796;-65
2021/12/15 02:56:39;;;;;;;53.10;28.30;;;;;;;2.84;89.23;101495.89;87894;1285;94896;-65
2021/12/15 02:58:54;;;;;;;54.40;28.50;;;;;;;2.82;89.24;101495.52;87895;1286;80988;-65
2021/12/15 03:01:17;;;;;;;55.60;29.70;;;;;;;2.84;89.23;101494.14;87903;1286;82349;-65
2021/12/15 03:03:54;;;;;;;51.40;26.00;;;;;;;2.88;89.31;101490.77;87860;1282;100005;-64
2021/12/15 03:06:12;;;;;;;51.70;27.50;;;;;;;2.94;89.36;101489.98;87879;1287;89173;-64
2021/12/15 03:08:25;;;;;;;50.20;25.90;;;;;;;2.97;89.45;101494.75;87896;1286;94806;-65
2021/12/15 03:15:38;;;;;;;53.60;28.90;;;;;;;3.09;89.36;101495.33;87763;1284;99298;-64
2021/12/15 03:17:55;;;;;;;54.50;30.60;;;;;;;3.07;89.32;101498.81;87915;1285;88527;-65
2021/12/15 03:20:10;;;;;;;58.50;31.30;;;;;;;3.04;89.45;101503.70;87880;1283;92421;-66
2021/12/15 03:22:20;;;;;;;56.00;30.50;;;;;;;2.97;89.31;101505.02;87901;1283;78405;-65
2021/12/15 03:24:33;;;;;;;53.80;28.40;;;;;;;2.97;89.30;101507.73;87901;1285;82079;-66
2021/12/15 03:26:54;;;;;;;51.60;27.40;;;;;;;2.97;89.33;101511.82;87873;1283;98352;-66
2021/12/15 03:34:41;;;;;;;;;;;;;;;2.92;89.35;101532.80;87398;1287;79655;-66
2021/12/15 03:37:21;;;;;;;53.60;27.30;;;;;;;2.95;89.29;101526.59;87732;1287;82243;-66
2021/12/15 03:39:35;;;;;;;49.40;26.80;;;;;;;3.02;89.37;101536.02;87882;1282;99314;-66
2021/12/15 03:41:42;;;;;;;;;;;;;;;3.00;89.30;101535.61;87901;1286;87751;-66
2021/12/15 03:43:52;;;;;;;55.30;29.00;;;;;;;2.97;89.30;101533.37;87911;1278;95623;-66
2021/12/15 03:46:06;;;;;;;56.70;29.00;;;;;;;2.95;89.28;101531.20;87901;1278;77953;-68
2021/12/15 03:48:21;;;;;;;55.30;30.10;;;;;;;2.91;89.19;101531.66;87896;1279;80424;-65
2021/12/15 03:50:33;;;;;;;54.40;28.70;;;;;;;2.95;89.24;101534.39;87892;1281;99697;-64
2021/12/15 03:52:49;;;;;;;53.20;26.60;;;;;;;2.94;89.23;101534.63;87898;1282;89025;-66
2021/12/15 03:54:58;;;;;;;48.70;25.90;;;;;;;2.91;89.29;101534.48;87914;1273;94105;-65
2021/12/15 03:57:08;;;;;;;52.80;28.20;;;;;;;2.93;89.16;101533.66;87881;1284;81055;-65
2021/12/15 03:59:19;;;;;;;52.70;26.40;;;;;;;2.94;89.33;101536.63;87879;1286;82067;-66
2021/12/15 04:01:29;;;;;;;53.60;28.50;;;;;;;3.02;89.30;101538.52;87907;1285;99640;-66
2021/12/15 04:03:43;;;;;;;51.20;26.90;;;;;;;3.05;89.31;101546.66;87864;1283;87455;-65
2021/12/15 04:05:53;;;;;;;57.30;29.50;;;;;;;3.05;89.26;101545.73;87882;1282;95211;-66
2021/12/15 04:08:02;;;;;;;52.10;29.00;;;;;;;3.08;89.28;101541.66;87851;1285;77327;-65
2021/12/15 04:10:17;;;;;;;50.10;25.90;;;;;;;3.07;89.30;101545.98;87884;1282;82308;-65
2021/12/15 04:12:29;;;;;;;49.70;25.00;;;;;;;3.04;89.27;101544.98;87869;1283;98558;-66
2021/12/15 04:14:45;;;;;;;47.90;24.70;;;;;;;3.08;89.39;101544.69;87880;1284;88132;-65
2021/12/15 04:17:02;;;;;;;44.20;24.70;;;;;;;3.09;89.28;101547.92;87849;1280;94595;-64
2021/12/15 04:19:19;;;;;;;46.00;24.20;;;;;;;3.05;89.28;101545.45;87900;1283;81565;-67
2021/12/15 04:21:30;;;;;;;45.10;24.40;;;;;;;3.04;89.19;101544.61;87884;1280;82423;-64
2021/12/15 04:23:39;;;;;;;49.80;26.70;;;;;;;3.11;89.36;101543.92;87868;1286;100168;-65
2021/12/15 04:25:50;;;;;;;57.90;29.30;;;;;;;3.19;89.40;101548.64;87890;1286;86700;-65
2021/12/15 04:28:07;;;;;;;48.90;25.80;;;;;;;3.18;89.36;101553.90;87917;1278;93172;-65
2021/12/15 04:30:17;;;;;;;57.70;29.90;;;;;;;3.17;89.29;101557.16;87860;1283;77265;-67
2021/12/15 04:32:37;;;;;;;51.20;27.20;;;;;;;3.18;89.16;101564.95;87681;1287;83295;-66
2021/12/15 04:34:47;;;;;;;51.10;25.50;;;;;;;3.13;89.25;101565.60;87868;1282;100005;-68
2021/12/15 04:37:00;;;;;;;52.50;25.80;;;;;;;3.10;89.17;101572.24;87861;1274;86974;-65
2021/12/15 04:39:12;;;;;;;48.90;25.20;;;;;;;3.06;89.19;101569.87;87869;1286;95134;-66
2021/12/15 04:41:26;;;;;;;48.60;25.10;;;;;;;3.04;89.15;101569.17;87852;1279;80782;-66
2021/12/15 04:43:39;;;;;;;49.90;25.80;;;;;;;3.07;89.28;101568.92;87903;1281;81943;-67
2021/12/15 04:45:49;;;;;;;48.00;24.50;;;;;;;3.07;89.24;101568.41;87852;1283;97693;-67
2021/12/15 04:48:02;;;;;;;48.70;25.10;;;;;;;3.08;89.21;101572.82;87892;1284;89049;-66
2021/12/15 04:50:13;;;;;;;49.50;26.90;;;;;;;3.10;89.11;101574.08;87869;1282;94816;-67
2021/12/15 04:52:28;;;;;;;49.40;26.80;;;;;;;3.10;89.16;101577.64;87675;1287;79635;-67
2021/12/15 04:54:38;;;;;;;52.70;26.40;;;;;;;3.11;89.22;101584.13;87889;1287;83167;-65
2021/12/15 04:56:53;;;;;;;54.10;27.70;;;;;;;3.11;89.21;101586.10;87910;1279;99963;-65
2021/12/15 04:59:06;;;;;;;52.40;27.60;;;;;;;3.09;89.09;101586.39;87908;1282;89199;-65
2021/12/15 05:01:19;;;;;;;52.10;26.40;;;;;;;3.10;89.06;101584.38;87889;1283;95839;-65
2021/12/15 05:03:28;;;;;;;50.10;24.90;;;;;;;3.08;89.11;101587.54;87869;1283;81652;-66
2021/12/15 05:05:39;;;;;;;49.90;24.50;;;;;;;3.06;89.20;101586.29;87894;1285;81045;-66
2021/12/15 05:07:50;;;;;;;46.90;25.40;;;;;;;3.04;89.11;101584.64;87880;1286;99443;-67
2021/12/15 05:10:00;;;;;;;43.70;23.90;;;;;;;3.05;89.04;101582.30;87894;1286;87685;-66
2021/12/15 05:12:13;;;;;;;49.40;24.40;;;;;;;3.04;89.05;101582.86;87890;1283;94741;-65
2021/12/15 05:14:25;;;;;;;51.30;27.20;;;;;;;3.03;89.06;101580.98;87862;1283;77571;-67
2021/12/15 05:16:34;;;;;;;51.70;28.80;;;;;;;3.05;89.15;101580.29;87714;1280;81709;-65
2021/12/15 05:18:44;;;;;;;54.30;27.60;;;;;;;3.12;89.29;101585.79;87635;1280;363740;-67
2021/12/15 05:20:54;;;;;;;49.70;26.60;;;;;;;3.14;89.25;101594.22;87903;1281;89863;-65
2021/12/15 05:23:04;;;;;;;51.70;27.80;;;;;;;3.12;89.10;101590.11;87874;1282;94452;-68
2021/12/15 05:25:15;;;;;;;49.40;27.00;;;;;;;3.07;89.04;101591.52;87871;1284;78904;-68
2021/12/15 05:27:24;;;;;;;47.00;25.50;;;;;;;3.06;89.13;101594.69;87883;1283;83127;-70
2021/12/15 05:29:34;;;;;;;47.80;25.20;;;;;;;3.02;89.03;101592.64;87881;1285;98186;-71
2021/12/15 05:31:44;;;;;;;46.70;24.30;;;;;;;3.01;89.13;101593.56;87841;1283;88808;-70
2021/12/15 05:33:54;;;;;;;44.20;23.00;;;;;;;3.04;89.18;101599.60;87860;1286;95795;-72
2021/12/15 05:36:04;;;;;;;42.90;25.00;;;;;;;3.00;89.15;101600.73;87871;1282;81172;-70
2021/12/15 05:38:14;;;;;;;47.90;26.10;;;;;;;2.97;89.16;101604.13;87914;1284;83095;-72
2021/12/15 05:40:24;;;;;;;51.90;27.40;;;;;;;2.98;89.29;101606.95;87896;1281;97954;-71
2021/12/15 05:42:37;;;;;;;51.20;28.20;;;;;;;2.98;89.25;101609.95;87862;1284;88399;-68
2021/12/15 05:44:47;;;;;;;49.20;25.70;;;;;;;3.02;89.33;101611.98;87869;1283;95689;-69
2021/12/15 05:47:00;;;;;;;50.00;26.70;;;;;;;3.04;89.28;101613.09;87863;1285;77856;-71
2021/12/15 05:49:13;;;;;;;55.10;28.40;;;;;;;3.03;89.28;101616.92;87879;1283;83460;-67
2021/12/15 05:51:22;;;;;;;46.60;23.80;;;;;;;3.01;89.16;101616.35;87866;1282;100524;-65
2021/12/15 05:53:35;;;;;;;49.00;24.60;;;;;;;3.02;89.06;101615.79;87898;1282;89728;-67
2021/12/15 05:55:44;;;;;;;47.40;23.90;;;;;;;2.98;89.16;101615.79;87857;1282;94403;-66
2021/12/15 05:57:54;;;;;;;49.70;24.60;;;;;;;2.99;89.21;101613.58;87867;1284;80578;-66
2021/12/15 06:00:13;;;;;;;46.80;23.20;;;;;;;3.03;89.06;101609.64;87887;1284;80511;-66
2021/12/15 06:02:26;;;;;;;49.40;26.20;;;;;;;3.04;89.13;101613.16;87910;1286;99666;-66
2021/12/15 06:04:38;;;;;;;;;;;;;;;3.05;89.27;101616.10;87870;1283;88339;-66
2021/12/15 06:06:47;;;;;;;48.60;26.10;;;;;;;3.04;89.27;101616.67;87867;1284;95176;-64
2021/12/15 06:09:01;;;;;;;53.70;26.60;;;;;;;3.02;89.22;101621.11;87856;1285;79100;-66
2021/12/15 06:11:11;;;;;;;47.70;26.90;;;;;;;3.00;89.16;101618.52;87883;1284;82181;-65
2021/12/15 06:13:26;;;;;;;48.80;26.70;;;;;;;3.00;89.18;101616.59;87869;1283;98989;-66
2021/12/15 06:15:38;;;;;;;49.50;25.40;;;;;;;3.02;89.25;101618.04;87892;1285;87973;-66
2021/12/15 06:17:50;;;;;;;47.10;24.20;;;;;;;3.01;89.20;101622.05;87853;1279;94372;-64
2021/12/15 06:20:04;;;;;;;46.50;24.20;;;;;;;2.98;89.15;101625.46;87880;1283;78912;-65
2021/12/15 06:22:16;;;;;;;;;;;;;;;2.96;89.20;101632.02;87873;1283;83143;-64
2021/12/15 06:24:27;;;;;;;44.30;23.80;;;;;;;2.93;89.19;101634.85;87838;1284;98435;-63
2021/12/15 06:26:40;;;;;;;46.60;25.00;;;;;;;2.95;89.25;101631.34;87852;1274;85672;-65
2021/12/15 06:28:50;;;;;;;45.40;25.00;;;;;;;3.06;89.46;101634.90;87866;1283;95568;-65
2021/12/15 06:31:07;;;;;;;45.50;24.50;;;;;;;3.06;89.38;101638.10;87861;1284;79160;-64
2021/12/15 06:33:19;;;;;;;43.10;23.60;;;;;;;3.05;89.30;101639.54;87884;1286;80071;-65
2021/12/15 06:35:29;;;;;;;45.80;24.90;;;;;;;3.05;89.27;101644.39;87887;1283;99548;-68
2021/12/15 06:37:43;;;;;;;46.10;23.60;;;;;;;3.03;89.39;101637.08;87873;1274;87496;-65
2021/12/15 06:39:53;;;;;;;46.40;23.60;;;;;;;3.05;89.30;101640.79;87863;1275;92282;-65
2021/12/15 06:42:03;;;;;;;41.00;22.20;;;;;;;3.05;89.26;101643.84;87857;1284;80215;-64
2021/12/15 06:44:16;;;;;;;40.20;21.10;;;;;;;3.04;89.27;101648.33;87886;1274;80095;-62
2021/12/15 06:46:52;;;;;;;37.70;21.30;;;;;;;3.04;89.21;101642.43;87899;1283;99241;-63
2021/12/15 06:58:53;;;;;;;41.80;24.10;;;;;;;3.03;89.21;101673.48;87866;1283;98345;-64
2021/12/15 07:01:10;;;;;;;42.70;22.50;;;;;;;3.02;89.12;101672.37;87864;1281;88404;-63
2021/12/15 07:03:22;;;;;;;38.60;20.10;;;;;;;3.06;89.26;101678.30;87845;1283;95132;-64
2021/12/15 07:05:32;;;;;;;36.80;20.20;;;;;;;3.06;89.17;101678.31;87859;1283;79225;-66
2021/12/15 07:07:44;;;;;;;39.30;20.90;;;;;;;3.04;89.17;101680.95;87889;1282;82986;-64
2021/12/15 07:09:54;;;;;;;42.50;22.00;;;;;;;3.13;89.45;101675.96;87849;1283;98414;-66
2021/12/15 07:12:04;;;;;;;39.60;20.20;;;;;;;3.21;89.46;101674.66;87890;1285;87825;-64
2021/12/15 07:14:16;;;;;;;36.90;20.50;;;;;;;3.19;89.45;101685.48;87680;1283;94633;-63
2021/12/15 07:16:32;;;;;;;38.80;22.10;;;;;;;3.20;89.29;101681.30;87841;1284;79909;-62
2021/12/15 07:18:51;;;;;;;37.60;22.50;;;;;;;3.19;89.21;101685.88;87856;1284;82304;-64
2021/12/15 07:21:07;;;;;;;47.90;27.60;;;;;;;3.21;89.28;101679.13;87842;1283;99456;-65
2021/12/15 07:23:19;;;;;;;50.70;28.90;;;;;;;3.27;89.25;101677.66;87867;1283;88943;-64
2021/12/15 07:25:31;;;;;;;49.90;26.30;;;;;;;3.24;89.30;101680.53;87835;1286;95632;-64
2021/12/15 07:27:44;;;;;;;48.80;25.20;;;;;;;3.23;89.22;101684.11;87844;1282;80148;-65
2021/12/15 07:29:54;;;;;;;42.40;23.30;;;;;;;3.25;89.14;101680.61;87893;1286;82629;-64
2021/12/15 07:32:05;;;;;;;41.90;24.50;;;;;;;3.28;89.30;101674.48;87860;1282;99255;-65
2021/12/15 07:34:15;;;;;;;43.70;22.80;;;;;;;3.28;89.37;101671.30;87851;1282;89327;-65
2021/12/15 07:36:24;;;;;;;42.10;23.20;;;;;;;3.32;89.35;101672.81;87863;1281;95613;-65
2021/12/15 07:38:34;;;;;;;43.40;23.50;;;;;;;3.34;89.29;101672.11;87867;1279;79431;-64
2021/12/15 07:40:44;;;;;;;42.90;23.40;;;;;;;3.34;89.30;101676.02;87868;1279;79889;-65
2021/12/15 07:43:08;;;;;;;40.70;23.10;;;;;;;3.33;89.39;101671.33;87898;1285;100168;-63
2021/12/15 07:45:22;;;;;;;43.00;24.00;;;;;;;3.33;89.36;101673.95;87853;1284;88741;-64
2021/12/15 07:47:32;;;;;;;41.90;23.00;;;;;;;3.31;89.38;101677.13;87868;1287;93426;-64
2021/12/15 07:49:44;;;;;;;39.80;21.20;;;;;;;3.36;89.25;101682.45;87841;1283;81214;-64
2021/12/15 07:52:00;;;;;;;38.40;21.30;;;;;;;3.39;89.27;101682.04;87876;1283;82504;-64
2021/12/15 07:54:10;;;;;;;39.20;19.70;;;;;;;3.40;89.35;101680.89;87842;1267;97976;-64
2021/12/15 07:56:23;;;;;;;36.60;21.10;;;;;;;3.43;89.23;101685.48;87861;1284;87607;-63
2021/12/15 07:58:32;;;;;;;45.30;22.50;;;;;;;3.45;89.29;101693.73;87822;1282;92936;-64
2021/12/15 08:00:44;;;;;;;38.90;22.50;;;;;;;3.49;89.31;101691.30;87859;1284;81005;-65
2021/12/15 08:02:54;;;;;;;42.80;24.00;;;;;;;3.54;89.22;101696.11;87872;1279;83188;-63
2021/12/15 08:05:08;;;;;;;41.70;23.70;;;;;;;3.61;89.28;101699.11;87860;1282;99984;-63
2021/12/15 08:07:18;;;;;;;41.50;23.60;;;;;;;3.63;89.15;101699.51;87865;1285;88407;-63
2021/12/15 08:09:27;;;;;;;41.90;23.00;;;;;;;3.65;89.35;101702.95;87838;1285;92153;-63
2021/12/15 08:11:40;;;;;;;42.60;22.80;;;;;;;3.65;89.30;101700.45;87740;1281;82785;-64
2021/12/15 08:13:52;;;;;;;37.30;21.20;;;;;;;3.66;89.26;101707.53;87868;1282;82210;-64
2021/12/15 08:16:02;;;;;;;42.30;22.10;;;;;;;3.71;89.23;101710.48;87828;1285;99661;-64
2021/12/15 08:18:15;;;;;;;38.50;21.50;;;;;;;3.76;89.15;101712.61;87886;1282;89142;-63
2021/12/15 08:20:31;;;;;;;38.50;21.10;;;;;;;3.78;89.12;101721.05;87813;1284;95302;-64
2021/12/15 08:22:40;;;;;;;38.00;22.20;;;;;;;3.84;89.15;101722.20;87809;1282;80455;-65
2021/12/15 08:24:52;;;;;;;40.90;23.10;;;;;;;3.88;89.16;101717.55;87843;1286;82313;-65
2021/12/15 08:27:02;;;;;;;39.60;23.00;;;;;;;3.90;89.12;101715.48;87846;1283;99380;-65
2021/12/15 08:29:12;;;;;;;41.90;23.90;;;;;;;3.93;89.10;101719.70;87846;1283;87715;-65
2021/12/15 08:31:24;;;;;;;42.10;24.90;;;;;;;3.95;89.16;101725.05;87871;1282;95286;-63
2021/12/15 08:33:37;;;;;;;45.00;26.00;;;;;;;3.96;88.99;101725.36;87712;1285;77767;-62
2021/12/15 08:35:56;;;;;;;51.20;25.00;;;;;;;3.97;88.78;101726.86;87864;1284;81999;-62
2021/12/15 08:38:07;;;;;;;38.50;22.30;;;;;;;3.94;88.55;101725.14;87858;1285;99779;-63
2021/12/15 08:40:19;;;;;;;38.90;24.30;;;;;;;3.91;88.66;101727.32;87844;1284;88974;-62
2021/12/15 08:42:32;;;;;;;38.60;23.10;;;;;;;3.93;88.67;101732.03;87829;1282;95279;-63
2021/12/15 08:44:43;;;;;;;39.20;23.10;;;;;;;3.95;88.69;101737.40;87854;1282;80080;-63
2021/12/15 08:46:53;;;;;;;40.30;23.80;;;;;;;3.95;88.70;101736.33;87850;1285;83748;-64
2021/12/15 08:49:04;;;;;;;42.20;24.30;;;;;;;3.92;88.84;101738.30;87860;1284;98398;-64
2021/12/15 08:51:16;;;;;;;43.20;25.30;;;;;;;3.94;88.91;101737.77;87881;1281;88003;-63
2021/12/15 08:53:26;;;;;;;44.20;26.90;;;;;;;4.03;88.82;101731.61;87676;1284;95704;-64
2021/12/15 08:55:36;;;;;;;49.00;28.80;;;;;;;4.09;88.71;101722.06;87769;1283;81075;-64
2021/12/15 08:57:49;;;;;;;44.10;26.30;;;;;;;4.08;88.45;101721.94;87919;1283;80898;-64
2021/12/15 08:59:58;;;;;;;48.20;27.80;;;;;;;4.04;88.58;101724.18;87830;1282;99151;-64
2021/12/15 09:02:12;;;;;;;48.00;26.90;;;;;;;4.02;88.50;101721.19;87862;1281;89490;-63
2021/12/15 09:04:23;;;;;;;;;;;;;;;4.00;88.39;101721.52;87841;1286;95054;-63
2021/12/15 09:06:39;;;;;;;42.00;24.00;;;;;;;3.96;88.49;101719.45;87882;1285;81738;-65
2021/12/15 09:08:49;;;;;;;40.40;23.70;;;;;;;3.96;88.42;101719.48;87839;1282;82237;-65
2021/12/15 09:11:07;;;;;;;44.10;25.50;;;;;;;3.89;88.57;101712.52;87843;1282;99406;-65
2021/12/15 09:13:17;;;;;;;39.30;23.90;;;;;;;3.93;88.57;101706.19;87868;1281;89205;-65
2021/12/15 09:15:27;;;;;;;42.70;25.20;;;;;;;3.98;88.55;101707.04;87850;1275;95833;-65
2021/12/15 09:17:39;;;;;;;43.20;26.80;;;;;;;3.96;88.40;101699.34;87879;1284;80311;-64
2021/12/15 09:19:52;;;;;;;48.10;25.20;;;;;;;3.90;88.36;101691.08;87869;1284;83146;-63
2021/12/15 09:22:01;;;;;;;44.60;26.30;;;;;;;3.86;88.51;101688.20;87809;1285;98811;-67
2021/12/15 09:24:14;;;;;;;41.60;23.00;;;;;;;3.82;88.45;101688.64;87846;1283;88993;-64
2021/12/15 09:26:24;;;;;;;39.00;24.50;;;;;;;3.81;88.39;101689.26;87849;1285;95050;-63
2021/12/15 09:28:37;;;;;;;37.30;22.10;;;;;;;3.80;88.49;101692.20;87834;1284;80089;-67
2021/12/15 09:30:48;;;;;;;37.70;21.70;;;;;;;3.86;88.54;101697.98;87863;1290;80856;-63
2021/12/15 09:32:59;;;;;;;35.70;21.60;;;;;;;3.93;88.61;101695.45;87867;1283;99180;-64
2021/12/15 09:35:16;;;;;;;36.40;20.90;;;;;;;3.98;88.65;101700.09;87749;1279;87298;-65
2021/12/15 09:37:26;;;;;;;37.00;21.10;;;;;;;4.03;88.80;101702.58;87855;1284;94216;-64
2021/12/15 09:39:36;;;;;;;41.00;21.90;;;;;;;4.10;88.92;101699.89;87835;1283;81721;-64
2021/12/15 09:41:51;;;;;;;35.20;21.10;;;;;;;4.18;88.72;101699.61;87869;1281;81562;-67
2021/12/15 09:44:08;;;;;;;40.00;23.10;;;;;;;4.22;88.64;101700.18;87851;1282;97598;-65
2021/12/15 09:46:37;;;;;;;36.10;20.60;;;;;;;4.27;88.59;101692.91;87814;1285;89860;-65
2021/12/15 09:56:49;;;;;;;39.30;23.20;;;;;;;4.25;88.37;101686.11;87712;1284;99995;-64
2021/12/15 10:04:05;;;;;;;38.30;21.90;;;;;;;4.17;88.41;101681.19;87844;1282;80125;-63
2021/12/15 10:06:32;;;;;;;38.40;22.10;;;;;;;4.20;88.43;101672.54;87822;1282;81531;-64
2021/12/15 10:11:19;;;;;;;38.80;23.30;;;;;;;4.20;88.32;101667.55;87830;1283;89364;-65
2021/12/15 10:18:37;;;;;;;40.60;22.80;;;;;;;4.39;88.62;101657.72;87849;1285;80083;-64
2021/12/15 10:20:50;;;;;;;38.80;22.00;;;;;;;4.47;88.72;101664.18;87839;1285;98093;-64
2021/12/15 10:23:03;;;;;;;37.70;20.80;;;;;;;4.56;88.69;101661.00;87871;1285;87655;-65
2021/12/15 10:25:24;;;;;;;35.70;22.90;;;;;;;4.62;88.86;101660.83;87818;1283;97587;-65
2021/12/15 10:27:48;;;;;;;38.90;20.80;;;;;;;4.65;88.83;101654.20;87847;1279;80422;-63
2021/12/15 10:30:14;;;;;;;40.40;22.40;;;;;;;4.75;88.59;101654.83;87879;1285;81443;-64
2021/12/15 10:32:31;;;;;;;40.50;22.70;;;;;;;4.74;88.58;101651.14;87868;1284;98617;-66
2021/12/15 10:34:42;;;;;;;42.30;23.30;;;;;;;4.76;88.52;101651.14;87840;1282;85777;-64
2021/12/15 10:36:52;;;;;;;43.20;22.60;;;;;;;4.80;88.59;101656.95;87795;1279;94216;-65
2021/12/15 10:39:05;;;;;;;40.00;22.00;;;;;;;4.85;88.63;101662.27;87865;1279;79909;-64
2021/12/15 10:41:18;;;;;;;36.40;19.10;;;;;;;4.89;88.36;101660.88;87869;1280;82883;-64
2021/12/15 10:43:31;;;;;;;40.10;20.90;;;;;;;4.94;88.52;101657.73;87672;1287;100297;-65
2021/12/15 10:45:47;;;;;;;40.40;21.70;;;;;;;5.00;88.54;101658.15;87836;1285;88295;-64
2021/12/15 10:47:56;;;;;;;33.70;19.00;;;;;;;5.01;88.44;101658.66;87843;1284;95010;-66
2021/12/15 10:50:16;;;;;;;40.80;21.30;;;;;;;5.05;88.44;101662.94;87850;1284;81924;-64
2021/12/15 10:52:25;;;;;;;35.70;20.00;;;;;;;5.05;88.35;101658.80;87831;1284;80685;-63
2021/12/15 10:54:40;;;;;;;40.90;22.30;;;;;;;5.06;88.40;101653.00;87862;1284;98485;-65
2021/12/15 10:56:56;;;;;;;38.00;20.70;;;;;;;5.13;88.28;101654.80;87835;1282;87604;-66
2021/12/15 10:59:14;;;;;;;36.50;21.00;;;;;;;5.17;88.36;101652.50;87847;1285;94903;-67
2021/12/15 11:01:56;;;;;;;41.50;22.60;;;;;;;5.15;88.34;101648.73;87877;1283;79418;-68
2021/12/15 11:04:20;;;;;;;38.30;20.10;;;;;;;5.16;88.41;101648.50;87844;1282;81486;-65